createdAt,value
2023-02-23T00:00:27.772Z,46.00
2023-02-23T00:00:59.654Z,45.00
2023-02-23T00:01:31.501Z,44.67
2023-02-23T00:02:05.795Z,44.00
2023-02-23T00:02:37.591Z,43.67
2023-02-23T00:03:09.559Z,43.00
2023-02-23T00:03:42.007Z,43.00
2023-02-23T00:04:13.880Z,43.00
2023-02-23T00:04:45.819Z,42.00
2023-02-23T00:05:17.814Z,42.00
2023-02-23T00:05:49.626Z,42.00
2023-02-23T00:06:21.511Z,42.00
2023-02-23T00:06:54.129Z,42.00
2023-02-23T00:07:27.199Z,42.00
2023-02-23T00:07:59.397Z,42.00
2023-02-23T00:08:31.164Z,42.00
2023-02-23T00:09:23.450Z,42.00
2023-02-23T00:09:57.055Z,42.00
2023-02-23T00:10:31.707Z,42.00
2023-02-23T00:11:05.701Z,42.00
2023-02-23T00:11:38.848Z,42.00
2023-02-23T00:12:10.684Z,42.00
2023-02-23T00:12:42.626Z,42.00
2023-02-23T00:13:14.382Z,42.00
2023-02-23T00:13:50.288Z,42.67
2023-02-23T00:14:31.256Z,43.00
2023-02-23T00:15:03.323Z,42.00
2023-02-23T00:15:36.500Z,42.00
2023-02-23T00:16:14.985Z,42.00
2023-02-23T00:16:47.047Z,41.00
2023-02-23T00:17:18.931Z,41.00
2023-02-23T00:17:51.890Z,41.00
2023-02-23T00:18:23.636Z,41.00
2023-02-23T00:19:00.632Z,41.67
2023-02-23T00:19:33.711Z,42.00
2023-02-23T00:20:12.978Z,42.00
2023-02-23T00:20:48.548Z,42.67
2023-02-23T00:21:33.187Z,42.00
2023-02-23T00:22:04.988Z,42.00
2023-02-23T00:22:40.338Z,42.00
2023-02-23T00:23:12.135Z,42.00
2023-02-23T00:23:49.392Z,42.00
2023-02-23T00:24:21.549Z,42.00
2023-02-23T00:24:54.026Z,42.67
2023-02-23T00:25:26.003Z,43.00
2023-02-23T00:25:59.560Z,44.00
2023-02-23T00:26:35.287Z,43.00
2023-02-23T00:27:07.204Z,43.00
2023-02-23T00:27:44.417Z,43.00
2023-02-23T00:28:16.543Z,43.00
2023-02-23T00:28:49.470Z,43.67
2023-02-23T00:29:23.882Z,44.00
2023-02-23T00:29:56.528Z,44.00
2023-02-23T00:30:28.390Z,44.00
2023-02-23T00:31:02.976Z,44.00
2023-02-23T00:31:35.573Z,44.00
2023-02-23T00:32:07.544Z,44.00
2023-02-23T00:32:40.004Z,44.00
2023-02-23T00:33:12.535Z,44.00
2023-02-23T00:33:44.826Z,44.00
2023-02-23T00:34:22.042Z,44.00
2023-02-23T00:34:53.868Z,44.00
2023-02-23T00:35:25.600Z,44.00
2023-02-23T00:36:13.970Z,44.00
2023-02-23T00:36:45.705Z,43.00
2023-02-23T00:37:19.129Z,43.00
2023-02-23T00:37:50.980Z,43.00
2023-02-23T00:38:22.758Z,43.00
2023-02-23T00:39:00.671Z,43.00
2023-02-23T00:39:32.509Z,43.00
2023-02-23T00:40:13.157Z,43.00
2023-02-23T00:40:46.030Z,43.00
2023-02-23T00:41:20.599Z,43.00
2023-02-23T00:41:54.023Z,43.00
2023-02-23T00:42:32.370Z,44.00
2023-02-23T00:43:04.230Z,44.00
2023-02-23T00:43:35.865Z,44.00
2023-02-23T00:44:08.106Z,44.00
2023-02-23T00:44:40.780Z,44.00
2023-02-23T00:45:16.161Z,44.00
2023-02-23T00:45:48.289Z,44.00
2023-02-23T00:46:23.922Z,44.00
2023-02-23T00:46:55.660Z,44.00
2023-02-23T00:47:27.456Z,44.00
2023-02-23T00:47:59.253Z,44.00
2023-02-23T00:48:35.585Z,44.00
2023-02-23T00:49:07.869Z,43.33
2023-02-23T00:49:39.645Z,43.00
2023-02-23T00:50:16.952Z,43.00
2023-02-23T00:50:50.813Z,43.00
2023-02-23T00:51:23.970Z,43.00
2023-02-23T00:51:55.730Z,44.00
2023-02-23T00:52:27.474Z,44.00
2023-02-23T00:53:00.317Z,44.00
2023-02-23T00:53:32.661Z,44.00
2023-02-23T00:54:05.122Z,44.00
2023-02-23T00:54:36.935Z,44.00
2023-02-23T00:55:10.481Z,44.00
2023-02-23T00:55:42.311Z,44.00
2023-02-23T00:56:16.072Z,44.00
2023-02-23T00:56:48.117Z,44.00
2023-02-23T00:57:19.877Z,43.33
2023-02-23T00:57:51.664Z,44.00
2023-02-23T00:58:25.281Z,44.00
2023-02-23T00:58:57.449Z,44.00
2023-02-23T00:59:29.834Z,44.00
2023-02-23T01:00:01.961Z,44.00
2023-02-23T01:00:33.934Z,44.00
2023-02-23T01:01:11.958Z,44.00
2023-02-23T01:01:44.162Z,43.33
2023-02-23T01:02:16.050Z,43.33
2023-02-23T01:02:48.951Z,44.00
2023-02-23T01:03:20.834Z,44.00
2023-02-23T01:03:53.420Z,44.00
2023-02-23T01:04:25.296Z,44.67
2023-02-23T01:04:57.315Z,45.00
2023-02-23T01:05:29.147Z,45.00
2023-02-23T01:06:05.529Z,46.00
2023-02-23T01:06:38.887Z,46.00
2023-02-23T01:07:12.999Z,46.00
2023-02-23T01:07:47.616Z,46.00
2023-02-23T01:08:19.502Z,46.67
2023-02-23T01:08:56.813Z,47.00
2023-02-23T01:09:28.802Z,47.00
2023-02-23T01:10:00.627Z,47.00
2023-02-23T01:10:33.471Z,47.00
2023-02-23T01:11:14.642Z,47.00
2023-02-23T01:11:47.137Z,47.00
2023-02-23T01:12:18.881Z,47.00
2023-02-23T01:12:52.125Z,47.33
2023-02-23T01:13:24.990Z,48.00
2023-02-23T01:13:58.716Z,48.00
2023-02-23T01:14:31.470Z,48.00
2023-02-23T01:15:03.665Z,48.00
2023-02-23T01:15:35.515Z,48.00
2023-02-23T01:16:12.897Z,48.67
2023-02-23T01:16:44.726Z,49.00
2023-02-23T01:17:18.428Z,50.00
2023-02-23T01:17:50.368Z,50.00
2023-02-23T01:18:22.538Z,50.00
2023-02-23T01:18:59.800Z,50.00
2023-02-23T01:19:34.185Z,50.00
2023-02-23T01:20:17.936Z,50.67
2023-02-23T01:20:51.038Z,52.00
2023-02-23T01:21:24.758Z,52.00
2023-02-23T01:21:56.510Z,52.33
2023-02-23T01:22:28.318Z,53.00
2023-02-23T01:23:00.158Z,53.00
2023-02-23T01:23:32.629Z,53.00
2023-02-23T01:24:06.116Z,53.00
2023-02-23T01:24:38.764Z,53.00
2023-02-23T01:25:12.402Z,52.00
2023-02-23T01:25:45.333Z,52.00
2023-02-23T01:26:22.531Z,52.00
2023-02-23T01:26:54.343Z,52.00
2023-02-23T01:27:26.104Z,52.00
2023-02-23T01:27:58.256Z,52.00
2023-02-23T01:28:30.026Z,52.67
2023-02-23T01:29:11.761Z,53.00
2023-02-23T01:29:43.659Z,53.00
2023-02-23T01:30:16.152Z,53.33
2023-02-23T01:30:48.329Z,53.00
2023-02-23T01:31:22.334Z,53.00
2023-02-23T01:31:54.585Z,53.00
2023-02-23T01:32:26.385Z,53.00
2023-02-23T01:32:58.289Z,53.00
2023-02-23T01:33:31.300Z,53.00
2023-02-23T01:34:04.845Z,53.00
2023-02-23T01:34:36.699Z,52.67
2023-02-23T01:35:10.755Z,52.00
2023-02-23T01:35:43.699Z,52.00
2023-02-23T01:36:15.527Z,52.00
2023-02-23T01:36:47.538Z,52.00
2023-02-23T01:37:19.313Z,52.00
2023-02-23T01:37:51.123Z,51.67
2023-02-23T01:38:22.946Z,51.00
2023-02-23T01:38:57.173Z,51.00
2023-02-23T01:39:30.014Z,51.00
2023-02-23T01:40:09.627Z,51.00
2023-02-23T01:40:43.592Z,51.00
2023-02-23T01:41:16.650Z,50.67
2023-02-23T01:41:51.751Z,51.00
2023-02-23T01:42:23.818Z,51.00
2023-02-23T01:43:11.948Z,51.00
2023-02-23T01:44:01.584Z,51.00
2023-02-23T01:44:34.901Z,51.00
2023-02-23T01:45:34.777Z,52.00
2023-02-23T01:46:06.675Z,52.00
2023-02-23T01:46:41.505Z,52.00
2023-02-23T01:47:14.609Z,52.00
2023-02-23T01:47:48.021Z,52.00
2023-02-23T01:48:23.852Z,52.00
2023-02-23T01:48:56.582Z,52.00
2023-02-23T01:49:31.057Z,51.00
2023-02-23T01:50:02.969Z,51.67
2023-02-23T01:50:44.327Z,52.00
2023-02-23T01:51:20.479Z,52.00
2023-02-23T01:51:59.565Z,52.00
2023-02-23T01:52:31.471Z,51.67
2023-02-23T01:53:03.775Z,51.00
2023-02-23T01:53:40.671Z,51.00
2023-02-23T01:54:18.837Z,51.00
2023-02-23T01:54:55.016Z,50.00
2023-02-23T01:55:29.314Z,49.00
2023-02-23T01:56:24.081Z,46.33
2023-02-23T01:56:59.050Z,46.00
2023-02-23T01:57:30.917Z,45.00
2023-02-23T01:58:11.757Z,44.67
2023-02-23T01:58:47.531Z,44.00
2023-02-23T01:59:19.467Z,44.00
2023-02-23T01:59:51.567Z,44.00
2023-02-23T02:00:26.583Z,44.00
2023-02-23T02:01:03.379Z,44.00
2023-02-23T02:01:35.202Z,45.67
2023-02-23T02:02:07.814Z,47.00
2023-02-23T02:02:40.322Z,47.00
2023-02-23T02:03:20.541Z,47.00
2023-02-23T02:03:57.809Z,47.67
2023-02-23T02:04:33.792Z,48.00
2023-02-23T02:05:13.166Z,48.00
2023-02-23T02:05:45.770Z,48.00
2023-02-23T02:06:21.623Z,48.00
2023-02-23T02:06:56.854Z,48.00
2023-02-23T02:07:30.982Z,49.00
2023-02-23T02:08:06.509Z,50.33
2023-02-23T02:08:45.167Z,51.67
2023-02-23T02:09:19.622Z,52.00
2023-02-23T02:10:21.550Z,52.00
2023-02-23T02:10:57.631Z,53.00
2023-02-23T02:11:36.341Z,53.00
2023-02-23T02:12:12.098Z,53.00
2023-02-23T02:12:54.436Z,53.00
2023-02-23T02:13:32.023Z,53.33
2023-02-23T02:14:14.577Z,54.00
2023-02-23T02:14:46.431Z,55.00
2023-02-23T02:15:19.697Z,55.00
2023-02-23T02:16:17.352Z,55.00
2023-02-23T02:17:02.506Z,57.67
2023-02-23T02:18:09.308Z,65.00
2023-02-23T02:19:00.260Z,65.00
2023-02-23T02:20:26.605Z,64.00
2023-02-23T02:21:41.452Z,62.33
2023-02-23T02:22:39.922Z,60.33
2023-02-23T02:23:53.558Z,58.67
2023-02-23T02:24:47.644Z,57.67
2023-02-23T02:25:56.792Z,56.00
2023-02-23T02:26:58.594Z,54.00
2023-02-23T02:27:43.737Z,53.00
2023-02-23T02:28:40.019Z,53.00
2023-02-23T02:29:20.507Z,53.00
2023-02-23T02:30:16.772Z,53.00
2023-02-23T02:31:31.696Z,53.00
2023-02-23T02:32:24.475Z,52.00
2023-02-23T02:33:33.284Z,51.67
2023-02-23T02:34:11.933Z,51.00
2023-02-23T02:34:58.700Z,51.00
2023-02-23T02:36:00.825Z,51.00
2023-02-23T02:37:07.220Z,51.00
2023-02-23T02:38:03.722Z,50.00
2023-02-23T02:38:53.826Z,50.00
2023-02-23T02:39:53.725Z,50.67
2023-02-23T02:40:55.981Z,52.00
2023-02-23T02:42:03.025Z,52.00
2023-02-23T02:42:49.363Z,52.00
2023-02-23T02:43:26.837Z,52.00
2023-02-23T02:44:49.581Z,53.00
2023-02-23T02:45:43.280Z,53.00
2023-02-23T02:46:19.785Z,53.33
2023-02-23T02:47:01.176Z,54.00
2023-02-23T02:48:05.271Z,54.00
2023-02-23T02:48:52.366Z,53.00
2023-02-23T02:49:36.110Z,53.00
2023-02-23T02:50:38.394Z,53.00
2023-02-23T02:51:24.892Z,53.00
2023-02-23T02:52:17.843Z,53.00
2023-02-23T02:52:57.372Z,53.00
2023-02-23T02:53:41.799Z,53.00
2023-02-23T02:54:28.885Z,55.67
2023-02-23T02:55:19.068Z,60.67
2023-02-23T02:55:56.089Z,62.00
2023-02-23T02:56:28.939Z,61.67
2023-02-23T02:57:04.454Z,61.00
2023-02-23T02:57:37.670Z,60.33
2023-02-23T02:58:12.625Z,59.67
2023-02-23T02:58:44.519Z,59.00
2023-02-23T02:59:38.857Z,58.33
2023-02-23T03:00:38.315Z,58.00
2023-02-23T03:01:32.901Z,57.33
2023-02-23T03:02:24.996Z,56.00
2023-02-23T03:03:15.119Z,55.00
2023-02-23T03:04:07.427Z,54.33
2023-02-23T03:04:58.000Z,53.33
2023-02-23T03:06:10.372Z,53.00
2023-02-23T03:07:17.807Z,53.00
2023-02-23T03:08:32.126Z,53.00
2023-02-23T03:09:38.390Z,53.00
2023-02-23T03:10:48.064Z,53.67
2023-02-23T03:11:38.547Z,54.00
2023-02-23T03:13:05.890Z,54.00
2023-02-23T03:14:11.188Z,55.00
2023-02-23T03:15:22.424Z,56.00
2023-02-23T03:16:16.027Z,56.00
2023-02-23T03:17:21.672Z,56.00
2023-02-23T03:18:50.633Z,57.00
2023-02-23T03:19:44.746Z,59.00
2023-02-23T03:20:54.993Z,58.33
2023-02-23T03:21:54.901Z,58.00
2023-02-23T03:22:56.703Z,58.00
2023-02-23T03:23:56.771Z,58.67
2023-02-23T03:25:26.116Z,59.00
2023-02-23T03:26:40.688Z,59.00
2023-02-23T03:28:09.280Z,59.67
2023-02-23T03:29:21.253Z,61.00
2023-02-23T03:30:28.525Z,60.67
2023-02-23T03:31:27.688Z,60.00
2023-02-23T03:32:29.996Z,60.00
2023-02-23T03:33:31.500Z,61.00
2023-02-23T03:34:36.536Z,61.00
2023-02-23T03:35:32.060Z,61.00
2023-02-23T03:36:29.652Z,61.67
2023-02-23T03:37:49.667Z,62.00
2023-02-23T03:38:54.866Z,62.00
2023-02-23T03:39:55.713Z,62.00
2023-02-23T03:40:51.880Z,62.00
2023-02-23T03:41:45.863Z,61.33
2023-02-23T03:42:42.173Z,61.00
2023-02-23T03:43:38.566Z,62.00
2023-02-23T03:44:36.564Z,61.00
2023-02-23T03:45:33.225Z,62.00
2023-02-23T03:46:30.454Z,62.00
2023-02-23T03:47:23.988Z,60.67
2023-02-23T03:48:18.522Z,57.67
2023-02-23T03:49:12.093Z,57.00
2023-02-23T03:50:03.600Z,57.00
2023-02-23T03:51:04.273Z,58.00
2023-02-23T03:51:58.788Z,58.00
2023-02-23T03:53:03.659Z,58.00
2023-02-23T03:54:19.958Z,59.00
2023-02-23T03:55:17.551Z,60.00
2023-02-23T03:56:14.478Z,60.00
2023-02-23T03:57:10.560Z,60.00
2023-02-23T03:58:06.919Z,60.33
2023-02-23T03:59:04.082Z,64.00
2023-02-23T04:00:02.665Z,65.00
2023-02-23T04:01:01.215Z,64.67
2023-02-23T04:01:52.341Z,64.00
2023-02-23T04:02:44.365Z,64.00
2023-02-23T04:03:37.774Z,63.00
2023-02-23T04:04:29.762Z,62.00
2023-02-23T04:05:26.468Z,60.33
2023-02-23T04:06:17.515Z,59.00
2023-02-23T04:07:08.638Z,58.67
2023-02-23T04:08:00.625Z,58.00
2023-02-23T04:08:56.691Z,58.00
2023-02-23T04:09:47.307Z,57.00
2023-02-23T04:10:37.887Z,57.00
2023-02-23T04:11:37.009Z,57.00
2023-02-23T04:12:39.640Z,56.33
2023-02-23T04:13:18.616Z,56.00
2023-02-23T04:13:58.653Z,56.00
2023-02-23T04:14:43.202Z,56.00
2023-02-23T04:15:30.116Z,56.00
2023-02-23T04:16:07.854Z,56.00
2023-02-23T04:16:40.793Z,58.67
2023-02-23T04:17:15.804Z,60.67
2023-02-23T04:17:47.692Z,60.00
2023-02-23T04:18:27.159Z,60.00
2023-02-23T04:18:59.244Z,60.00
2023-02-23T04:19:31.020Z,60.00
2023-02-23T04:20:03.870Z,59.33
2023-02-23T04:20:35.644Z,59.00
2023-02-23T04:21:07.830Z,59.00
2023-02-23T04:21:39.554Z,59.67
2023-02-23T04:22:11.257Z,60.00
2023-02-23T04:22:43.005Z,60.00
2023-02-23T04:23:14.793Z,80.00
2023-02-23T04:23:46.664Z,105.00
2023-02-23T04:24:18.785Z,90.33
2023-02-23T04:24:51.006Z,81.33
2023-02-23T04:25:26.890Z,78.67
2023-02-23T04:25:59.613Z,77.33
2023-02-23T04:26:31.547Z,75.67
2023-02-23T04:27:03.352Z,74.33
2023-02-23T04:27:37.720Z,73.00
2023-02-23T04:28:09.434Z,72.00
2023-02-23T04:28:41.124Z,72.00
2023-02-23T04:29:12.959Z,71.33
2023-02-23T04:29:45.261Z,71.00
2023-02-23T04:30:17.623Z,71.00
2023-02-23T04:30:50.026Z,70.67
2023-02-23T04:31:25.227Z,70.00
2023-02-23T04:31:57.328Z,69.33
2023-02-23T04:32:29.704Z,69.00
2023-02-23T04:33:01.510Z,69.00
2023-02-23T04:33:33.247Z,68.33
2023-02-23T04:34:05.110Z,68.33
2023-02-23T04:34:36.834Z,91.33
2023-02-23T04:35:09.999Z,86.33
2023-02-23T04:35:42.036Z,81.67
2023-02-23T04:36:13.893Z,80.67
2023-02-23T04:36:45.656Z,80.00
2023-02-23T04:37:17.464Z,79.67
2023-02-23T04:37:49.248Z,78.67
2023-02-23T04:38:21.560Z,76.00
2023-02-23T04:38:53.306Z,70.33
2023-02-23T04:39:25.476Z,65.67
2023-02-23T04:39:57.252Z,65.00
2023-02-23T04:40:30.160Z,65.00
2023-02-23T04:41:02.025Z,65.00
2023-02-23T04:41:33.811Z,64.33
2023-02-23T04:42:05.784Z,63.67
2023-02-23T04:42:39.439Z,62.33
2023-02-23T04:43:13.391Z,61.33
2023-02-23T04:43:45.150Z,61.67
2023-02-23T04:44:17.831Z,62.00
2023-02-23T04:44:49.772Z,62.00
2023-02-23T04:45:23.603Z,62.00
2023-02-23T04:45:55.467Z,62.00
2023-02-23T04:46:27.294Z,62.00
2023-02-23T04:46:59.110Z,62.00
2023-02-23T04:47:30.851Z,62.00
2023-02-23T04:48:02.606Z,62.00
2023-02-23T04:48:34.695Z,62.00
2023-02-23T04:49:06.472Z,61.67
2023-02-23T04:49:38.680Z,62.00
2023-02-23T04:50:11.400Z,62.00
2023-02-23T04:50:43.171Z,61.67
2023-02-23T04:51:14.962Z,62.00
2023-02-23T04:51:47.693Z,62.00
2023-02-23T04:52:19.436Z,61.67
2023-02-23T04:52:53.149Z,61.00
2023-02-23T04:53:25.410Z,61.00
2023-02-23T04:53:57.155Z,61.00
2023-02-23T04:54:28.952Z,61.00
2023-02-23T04:55:01.585Z,61.67
2023-02-23T04:55:33.673Z,62.67
2023-02-23T04:56:06.058Z,68.67
2023-02-23T04:56:39.515Z,79.33
2023-02-23T04:57:11.636Z,80.67
2023-02-23T04:57:43.489Z,80.67
2023-02-23T04:58:15.418Z,79.33
2023-02-23T04:58:47.229Z,78.00
2023-02-23T04:59:19.257Z,77.00
2023-02-23T04:59:50.984Z,76.33
2023-02-23T05:00:22.898Z,75.00
2023-02-23T05:00:54.800Z,71.33
2023-02-23T05:01:27.377Z,68.33
2023-02-23T05:01:59.218Z,68.00
2023-02-23T05:02:32.111Z,68.00
2023-02-23T05:03:04.029Z,68.00
2023-02-23T05:03:36.348Z,67.33
2023-02-23T05:04:08.375Z,67.00
2023-02-23T05:04:40.188Z,66.67
2023-02-23T05:05:12.514Z,65.33
2023-02-23T05:05:45.475Z,64.33
2023-02-23T05:06:17.760Z,62.67
2023-02-23T05:06:49.524Z,62.00
2023-02-23T05:07:21.292Z,61.33
2023-02-23T05:07:54.630Z,62.67
2023-02-23T05:08:26.376Z,81.33
2023-02-23T05:08:58.152Z,83.33
2023-02-23T05:09:30.719Z,79.33
2023-02-23T05:10:02.709Z,77.67
2023-02-23T05:10:34.973Z,76.33
2023-02-23T05:11:07.821Z,74.33
2023-02-23T05:11:39.647Z,72.67
2023-02-23T05:12:11.392Z,71.00
2023-02-23T05:12:43.196Z,67.67
2023-02-23T05:13:16.387Z,66.00
2023-02-23T05:13:48.184Z,66.00
2023-02-23T05:14:20.024Z,65.00
2023-02-23T05:14:51.792Z,64.67
2023-02-23T05:15:23.659Z,63.67
2023-02-23T05:15:58.285Z,62.33
2023-02-23T05:16:30.132Z,61.33
2023-02-23T05:17:01.968Z,61.00
2023-02-23T05:17:33.757Z,61.00
2023-02-23T05:18:05.854Z,61.00
2023-02-23T05:18:37.571Z,61.00
2023-02-23T05:19:09.344Z,61.00
2023-02-23T05:19:41.726Z,61.67
2023-02-23T05:20:14.922Z,62.00
2023-02-23T05:20:47.727Z,62.00
2023-02-23T05:21:19.716Z,61.67
2023-02-23T05:21:51.553Z,61.00
2023-02-23T05:22:23.644Z,61.00
2023-02-23T05:22:55.434Z,61.00
2023-02-23T05:23:27.228Z,61.00
2023-02-23T05:23:59.012Z,60.33
2023-02-23T05:24:30.779Z,59.33
2023-02-23T05:25:04.290Z,59.00
2023-02-23T05:25:38.925Z,58.33
2023-02-23T05:26:13.062Z,58.00
2023-02-23T05:26:45.511Z,58.00
2023-02-23T05:27:17.968Z,58.00
2023-02-23T05:27:50.127Z,58.00
2023-02-23T05:28:21.921Z,58.33
2023-02-23T05:28:55.006Z,58.00
2023-02-23T05:29:26.771Z,58.00
2023-02-23T05:29:58.718Z,57.67
2023-02-23T05:30:30.738Z,57.00
2023-02-23T05:31:04.598Z,57.67
2023-02-23T05:31:38.146Z,58.00
2023-02-23T05:32:10.086Z,58.67
2023-02-23T05:32:41.901Z,59.00
2023-02-23T05:33:15.844Z,60.00
2023-02-23T05:33:48.404Z,61.00
2023-02-23T05:34:20.143Z,62.00
2023-02-23T05:34:51.916Z,64.00
2023-02-23T05:35:24.117Z,64.00
2023-02-23T05:35:56.003Z,64.00
2023-02-23T05:36:28.371Z,64.00
2023-02-23T05:37:00.192Z,64.00
2023-02-23T05:37:31.979Z,64.00
2023-02-23T05:38:03.754Z,64.00
2023-02-23T05:38:35.610Z,64.00
2023-02-23T05:39:07.526Z,65.00
2023-02-23T05:39:40.192Z,65.67
2023-02-23T05:40:12.516Z,75.33
2023-02-23T05:40:44.827Z,103.33
2023-02-23T05:41:19.870Z,98.67
2023-02-23T05:41:52.611Z,87.67
2023-02-23T05:42:24.432Z,84.33
2023-02-23T05:42:59.565Z,82.33
2023-02-23T05:43:31.686Z,81.33
2023-02-23T05:44:03.583Z,81.33
2023-02-23T05:44:35.462Z,110.00
2023-02-23T05:45:07.837Z,123.00
2023-02-23T05:45:43.197Z,110.67
2023-02-23T05:46:21.523Z,118.00
2023-02-23T05:46:53.493Z,153.67
2023-02-23T05:47:25.262Z,121.33
2023-02-23T05:47:57.112Z,107.33
2023-02-23T05:48:29.635Z,103.67
2023-02-23T05:49:02.372Z,103.33
2023-02-23T05:49:34.253Z,102.67
2023-02-23T05:50:08.341Z,101.00
2023-02-23T05:50:40.210Z,99.00
2023-02-23T05:51:16.956Z,94.33
2023-02-23T05:51:48.917Z,91.00
2023-02-23T05:52:20.754Z,88.33
2023-02-23T05:52:52.721Z,87.00
2023-02-23T05:53:24.477Z,83.33
2023-02-23T05:53:56.364Z,79.33
2023-02-23T05:54:28.164Z,78.00
2023-02-23T05:55:00.118Z,76.67
2023-02-23T05:55:32.197Z,70.67
2023-02-23T05:56:05.800Z,65.67
2023-02-23T05:56:37.603Z,65.33
2023-02-23T05:57:09.371Z,68.33
2023-02-23T05:57:41.431Z,70.33
2023-02-23T05:58:13.164Z,93.67
2023-02-23T05:58:44.962Z,204.00
2023-02-23T05:59:17.531Z,159.33
2023-02-23T05:59:49.490Z,121.33
2023-02-23T06:00:22.144Z,123.00
2023-02-23T06:00:54.011Z,127.00
2023-02-23T06:01:27.042Z,123.67
2023-02-23T06:01:58.784Z,120.67
2023-02-23T06:02:30.563Z,129.67
2023-02-23T06:03:02.336Z,154.00
2023-02-23T06:03:34.573Z,149.67
2023-02-23T06:04:06.579Z,238.00
2023-02-23T06:04:38.422Z,325.00
2023-02-23T06:05:11.611Z,292.33
2023-02-23T06:05:43.410Z,259.00
2023-02-23T06:06:16.000Z,227.67
2023-02-23T06:06:47.824Z,182.33
2023-02-23T06:07:19.588Z,167.67
2023-02-23T06:07:51.677Z,178.67
2023-02-23T06:08:25.668Z,177.67
2023-02-23T06:08:57.425Z,153.67
2023-02-23T06:09:29.222Z,136.00
2023-02-23T06:10:00.982Z,127.67
2023-02-23T06:10:33.371Z,118.00
2023-02-23T06:11:05.822Z,107.00
2023-02-23T06:11:37.617Z,105.33
2023-02-23T06:12:09.467Z,103.00
2023-02-23T06:12:41.300Z,105.67
2023-02-23T06:13:13.748Z,107.67
2023-02-23T06:14:18.444Z,109.67
2023-02-23T06:14:50.994Z,118.67
2023-02-23T06:15:22.750Z,120.33
2023-02-23T06:15:54.864Z,139.33
2023-02-23T06:16:28.057Z,167.33
2023-02-23T06:17:00.438Z,154.00
2023-02-23T06:17:32.678Z,152.00
2023-02-23T06:18:05.744Z,161.00
2023-02-23T06:18:37.529Z,172.67
2023-02-23T06:19:09.406Z,171.33
2023-02-23T06:19:41.190Z,209.33
2023-02-23T06:20:14.382Z,210.67
2023-02-23T06:20:46.239Z,168.33
2023-02-23T06:21:18.381Z,135.33
2023-02-23T06:21:50.293Z,129.33
2023-02-23T06:22:22.081Z,134.00
2023-02-23T06:22:53.866Z,128.33
2023-02-23T06:23:25.580Z,146.33
2023-02-23T06:24:00.714Z,178.00
2023-02-23T06:24:32.672Z,161.33
2023-02-23T06:25:05.132Z,147.33
2023-02-23T06:25:36.900Z,116.00
2023-02-23T06:26:44.441Z,82.67
2023-02-23T06:27:16.693Z,70.00
2023-02-23T06:27:52.133Z,64.67
2023-02-23T06:28:24.440Z,62.33
2023-02-23T06:28:58.489Z,67.67
2023-02-23T06:29:31.140Z,67.00
2023-02-23T06:30:38.153Z,68.67
2023-02-23T06:31:10.135Z,74.00
2023-02-23T06:31:42.182Z,90.67
2023-02-23T06:32:14.189Z,84.00
2023-02-23T06:32:46.046Z,75.00
2023-02-23T06:33:17.883Z,73.33
2023-02-23T06:34:14.861Z,74.33
2023-02-23T06:34:46.644Z,83.00
2023-02-23T06:35:18.476Z,84.67
2023-02-23T06:35:50.508Z,84.67
2023-02-23T06:36:22.631Z,80.00
2023-02-23T06:36:54.411Z,69.33
2023-02-23T06:37:26.229Z,64.00
2023-02-23T06:37:58.766Z,79.00
2023-02-23T06:38:30.594Z,99.33
2023-02-23T06:39:02.361Z,98.67
2023-02-23T06:39:34.139Z,90.67
2023-02-23T06:40:06.994Z,71.67
2023-02-23T06:40:39.798Z,62.00
2023-02-23T06:41:12.703Z,57.67
2023-02-23T06:41:44.533Z,55.33
2023-02-23T06:42:16.771Z,55.67
2023-02-23T06:42:48.812Z,57.00
2023-02-23T06:43:22.856Z,60.00
2023-02-23T06:43:55.655Z,60.33
2023-02-23T06:44:27.502Z,60.67
2023-02-23T06:44:59.241Z,61.67
2023-02-23T06:45:32.084Z,53.67
2023-02-23T06:46:04.371Z,49.00
2023-02-23T06:46:36.442Z,52.00
2023-02-23T06:47:08.272Z,57.67
2023-02-23T06:47:41.114Z,58.67
2023-02-23T06:48:12.885Z,61.33
2023-02-23T06:48:44.668Z,66.00
2023-02-23T06:49:16.760Z,65.67
2023-02-23T06:49:48.574Z,63.67
2023-02-23T06:50:20.404Z,71.00
2023-02-23T06:50:52.572Z,72.00
2023-02-23T06:51:24.391Z,70.67
2023-02-23T06:51:56.964Z,70.00
2023-02-23T06:52:28.781Z,68.00
2023-02-23T06:53:00.508Z,65.33
2023-02-23T06:53:32.278Z,65.00
2023-02-23T06:54:04.274Z,65.00
2023-02-23T06:54:38.202Z,65.00
2023-02-23T06:55:10.300Z,65.00
2023-02-23T06:55:42.010Z,65.00
2023-02-23T06:56:14.094Z,65.00
2023-02-23T06:56:46.569Z,64.33
2023-02-23T06:57:18.691Z,63.00
2023-02-23T06:58:23.363Z,52.33
2023-02-23T06:58:58.182Z,49.67
2023-02-23T06:59:30.802Z,46.67
2023-02-23T07:00:06.885Z,47.67
2023-02-23T07:00:43.016Z,49.33
2023-02-23T07:01:15.872Z,50.00
2023-02-23T07:01:47.678Z,51.33
2023-02-23T07:02:19.992Z,58.67
2023-02-23T07:02:51.765Z,68.33
2023-02-23T07:03:24.355Z,69.00
2023-02-23T07:03:56.110Z,85.33
2023-02-23T07:04:27.895Z,98.00
2023-02-23T07:04:59.630Z,87.00
2023-02-23T07:05:31.480Z,81.33
2023-02-23T07:06:04.857Z,79.67
2023-02-23T07:06:37.256Z,77.00
2023-02-23T07:07:09.505Z,71.00
2023-02-23T07:07:41.431Z,62.33
2023-02-23T07:08:13.229Z,56.33
2023-02-23T07:08:45.214Z,54.33
2023-02-23T07:09:16.940Z,53.33
2023-02-23T07:09:48.695Z,54.00
2023-02-23T07:10:20.611Z,53.67
2023-02-23T07:10:52.545Z,53.67
2023-02-23T07:11:24.331Z,53.33
2023-02-23T07:11:56.132Z,50.33
2023-02-23T07:12:27.968Z,47.67
2023-02-23T07:12:59.740Z,47.67
2023-02-23T07:13:31.504Z,46.67
2023-02-23T07:14:03.433Z,47.00
2023-02-23T07:14:35.842Z,45.67
2023-02-23T07:15:08.239Z,45.33
2023-02-23T07:15:41.591Z,46.00
2023-02-23T07:16:14.957Z,46.67
2023-02-23T07:16:46.813Z,47.00
2023-02-23T07:17:18.887Z,47.33
2023-02-23T07:17:52.773Z,48.00
2023-02-23T07:18:24.516Z,48.33
2023-02-23T07:18:56.793Z,50.00
2023-02-23T07:19:28.932Z,52.33
2023-02-23T07:20:00.704Z,53.67
2023-02-23T07:20:33.283Z,55.67
2023-02-23T07:21:05.233Z,76.67
2023-02-23T07:21:37.463Z,73.33
2023-02-23T07:22:09.208Z,72.00
2023-02-23T07:22:40.953Z,70.00
2023-02-23T07:23:12.820Z,100.33
2023-02-23T07:23:44.616Z,138.67
2023-02-23T07:24:16.451Z,99.67
2023-02-23T07:24:48.309Z,85.67
2023-02-23T07:25:20.287Z,82.67
2023-02-23T07:25:56.630Z,81.00
2023-02-23T07:26:28.441Z,77.67
2023-02-23T07:27:00.320Z,76.00
2023-02-23T07:27:32.079Z,74.00
2023-02-23T07:28:04.527Z,69.00
2023-02-23T07:28:37.143Z,62.67
2023-02-23T07:29:12.520Z,55.33
2023-02-23T07:29:44.273Z,55.67
2023-02-23T07:30:18.274Z,55.33
2023-02-23T07:30:50.255Z,55.00
2023-02-23T07:31:22.396Z,55.67
2023-02-23T07:31:55.196Z,56.33
2023-02-23T07:32:27.121Z,57.00
2023-02-23T07:32:58.963Z,57.00
2023-02-23T07:33:32.692Z,57.33
2023-02-23T07:34:04.557Z,56.67
2023-02-23T07:34:37.273Z,55.67
2023-02-23T07:35:09.774Z,53.67
2023-02-23T07:35:42.442Z,52.33
2023-02-23T07:36:14.243Z,52.00
2023-02-23T07:36:46.033Z,52.00
2023-02-23T07:37:17.829Z,52.67
2023-02-23T07:37:49.555Z,53.67
2023-02-23T07:38:21.344Z,54.33
2023-02-23T07:38:54.272Z,55.00
2023-02-23T07:39:26.198Z,55.00
2023-02-23T07:39:59.524Z,55.00
2023-02-23T07:40:32.747Z,55.00
2023-02-23T07:41:04.776Z,55.33
2023-02-23T07:41:36.575Z,55.00
2023-02-23T07:42:08.369Z,55.00
2023-02-23T07:42:40.168Z,55.00
2023-02-23T07:43:11.930Z,55.00
2023-02-23T07:43:43.762Z,55.33
2023-02-23T07:44:15.930Z,56.33
2023-02-23T07:44:48.199Z,60.00
2023-02-23T07:45:19.968Z,61.00
2023-02-23T07:45:51.882Z,62.00
2023-02-23T07:46:23.684Z,64.67
2023-02-23T07:46:55.502Z,66.00
2023-02-23T07:47:31.261Z,67.00
2023-02-23T07:48:03.770Z,66.00
2023-02-23T07:48:35.620Z,67.33
2023-02-23T07:49:07.447Z,78.00
2023-02-23T07:49:39.226Z,81.00
2023-02-23T07:50:12.775Z,76.67
2023-02-23T07:50:45.084Z,75.00
2023-02-23T07:51:17.754Z,72.00
2023-02-23T07:51:49.728Z,67.67
2023-02-23T07:52:22.080Z,63.33
2023-02-23T07:52:53.885Z,61.33
2023-02-23T07:53:27.937Z,60.33
2023-02-23T07:54:04.802Z,58.33
2023-02-23T07:54:36.588Z,83.33
2023-02-23T07:55:09.436Z,89.00
2023-02-23T07:55:41.318Z,79.00
2023-02-23T07:56:13.731Z,77.67
2023-02-23T07:56:45.488Z,73.00
2023-02-23T07:57:17.249Z,88.67
2023-02-23T07:57:49.018Z,95.67
2023-02-23T07:58:20.796Z,83.00
2023-02-23T07:58:52.564Z,79.33